Terminal Aerodrome Forecast
Issued by NWS

Home | Current Version | Previous Version | Text Only | Print | Product List | Glossary On
Versions: 1 2 3 4 5 6 7 8 9 10 11 12 13
000
FTUS46 KSEW 202320
TAFCLM
TAF
KCLM 202320Z 2100/2124 31007KT P6SM OVC035
     FM210300 29008KT P6SM SCT080
     FM210900 27005KT P6SM OVC015
     FM211600 28004KT P6SM FEW020 BKN150
     FM211900 34005KT P6SM OVC100=

USA.gov is the U.S. government's official web portal to all federal, state and local government web resources and services.